sensor_id;sensor_type;location;lat;lon;timestamp;temperature;humidity
18091;DHT22;9172;49.948;9.208;2022-07-23T07:45:51;19.50;99.90
18091;DHT22;9172;49.948;9.208;2022-07-23T07:48:20;19.60;99.90
18091;DHT22;9172;49.948;9.208;2022-07-23T07:50:50;19.70;99.90
18091;DHT22;9172;49.948;9.208;2022-07-23T07:53:18;19.70;99.90
18091;DHT22;9172;49.948;9.208;2022-07-23T07:55:47;19.90;99.90
18091;DHT22;9172;49.948;9.208;2022-07-23T07:58:16;20.00;99.90
18091;DHT22;9172;49.948;9.208;2022-07-23T08:00:45;20.20;99.90
18091;DHT22;9172;49.948;9.208;2022-07-23T08:03:15;20.30;99.90
18091;DHT22;9172;49.948;9.208;2022-07-23T08:05:44;20.30;99.90
18091;DHT22;9172;49.948;9.208;2022-07-23T08:08:12;20.30;99.90
18091;DHT22;9172;49.948;9.208;2022-07-23T08:13:18;20.60;99.90
18091;DHT22;9172;49.948;9.208;2022-07-23T08:15:47;20.60;99.90
18091;DHT22;9172;49.948;9.208;2022-07-23T08:18:18;20.60;99.90
18091;DHT22;9172;49.948;9.208;2022-07-23T08:20:47;20.70;99.90
18091;DHT22;9172;49.948;9.208;2022-07-23T08:23:16;20.80;99.90
18091;DHT22;9172;49.948;9.208;2022-07-23T08:25:47;21.00;99.90
18091;DHT22;9172;49.948;9.208;2022-07-23T08:28:17;21.30;99.90
18091;DHT22;9172;49.948;9.208;2022-07-23T08:30:47;21.50;99.90
18091;DHT22;9172;49.948;9.208;2022-07-23T08:33:18;21.70;99.90
18091;DHT22;9172;49.948;9.208;2022-07-23T08:35:49;21.80;99.90
18091;DHT22;9172;49.948;9.208;2022-07-23T08:38:20;21.90;99.90
18091;DHT22;9172;49.948;9.208;2022-07-23T08:40:50;21.90;99.90
18091;DHT22;9172;49.948;9.208;2022-07-23T08:43:21;21.90;99.90
18091;DHT22;9172;49.948;9.208;2022-07-23T08:45:52;22.00;99.90
18091;DHT22;9172;49.948;9.208;2022-07-23T08:48:24;21.90;99.90
18091;DHT22;9172;49.948;9.208;2022-07-23T08:50:55;21.80;99.90
18091;DHT22;9172;49.948;9.208;2022-07-23T08:53:25;21.70;99.90
18091;DHT22;9172;49.948;9.208;2022-07-23T08:55:55;21.60;99.90
18091;DHT22;9172;49.948;9.208;2022-07-23T09:01:00;21.60;99.90
18091;DHT22;9172;49.948;9.208;2022-07-23T09:03:32;21.70;99.90
18091;DHT22;9172;49.948;9.208;2022-07-23T09:06:01;21.80;99.90
18091;DHT22;9172;49.948;9.208;2022-07-23T09:08:36;21.80;99.90
18091;DHT22;9172;49.948;9.208;2022-07-23T09:11:06;21.90;99.90
18091;DHT22;9172;49.948;9.208;2022-07-23T09:13:38;22.00;99.90
18091;DHT22;9172;49.948;9.208;2022-07-23T09:16:11;22.00;99.90
18091;DHT22;9172;49.948;9.208;2022-07-23T09:21:25;21.90;99.90
18091;DHT22;9172;49.948;9.208;2022-07-23T09:23:57;21.90;99.90
18091;DHT22;9172;49.948;9.208;2022-07-23T09:26:33;21.90;99.90
18091;DHT22;9172;49.948;9.208;2022-07-23T09:29:08;22.00;99.90
18091;DHT22;9172;49.948;9.208;2022-07-23T09:31:46;22.10;99.90
18091;DHT22;9172;49.948;9.208;2022-07-23T09:34:20;22.20;99.90
18091;DHT22;9172;49.948;9.208;2022-07-23T09:36:50;22.30;99.90
18091;DHT22;9172;49.948;9.208;2022-07-23T09:39:26;22.50;99.90
18091;DHT22;9172;49.948;9.208;2022-07-23T09:41:55;22.70;99.90
18091;DHT22;9172;49.948;9.208;2022-07-23T09:44:24;22.60;99.90
18091;DHT22;9172;49.948;9.208;2022-07-23T09:46:57;22.50;99.90
18091;DHT22;9172;49.948;9.208;2022-07-23T09:49:26;22.50;99.90
18091;DHT22;9172;49.948;9.208;2022-07-23T09:51:58;22.80;99.90
18091;DHT22;9172;49.948;9.208;2022-07-23T09:54:33;23.10;99.90
18091;DHT22;9172;49.948;9.208;2022-07-23T09:57:05;23.40;99.90
18091;DHT22;9172;49.948;9.208;2022-07-23T09:59:37;23.50;99.90
18091;DHT22;9172;49.948;9.208;2022-07-23T10:02:09;23.50;99.90
18091;DHT22;9172;49.948;9.208;2022-07-23T10:04:37;23.50;99.90
18091;DHT22;9172;49.948;9.208;2022-07-23T10:07:07;23.60;99.90
18091;DHT22;9172;49.948;9.208;2022-07-23T10:09:39;23.70;99.90
18091;DHT22;9172;49.948;9.208;2022-07-23T10:12:13;23.70;99.90
18091;DHT22;9172;49.948;9.208;2022-07-23T10:14:49;23.60;99.90
18091;DHT22;9172;49.948;9.208;2022-07-23T10:17:18;23.70;99.90
18091;DHT22;9172;49.948;9.208;2022-07-23T10:19:47;23.90;99.90
18091;DHT22;9172;49.948;9.208;2022-07-23T10:22:20;24.10;99.90
18091;DHT22;9172;49.948;9.208;2022-07-23T10:25:06;24.30;99.90
18091;DHT22;9172;49.948;9.208;2022-07-23T10:30:48;24.30;99.90
18091;DHT22;9172;49.948;9.208;2022-07-23T10:33:26;24.50;99.90
18091;DHT22;9172;49.948;9.208;2022-07-23T10:36:01;24.20;99.90
18091;DHT22;9172;49.948;9.208;2022-07-23T10:38:30;24.30;99.90
18091;DHT22;9172;49.948;9.208;2022-07-23T10:41:01;24.50;99.90
18091;DHT22;9172;49.948;9.208;2022-07-23T10:43:30;24.50;99.90
18091;DHT22;9172;49.948;9.208;2022-07-23T10:46:23;24.50;99.90
18091;DHT22;9172;49.948;9.208;2022-07-23T10:49:26;24.30;99.90
18091;DHT22;9172;49.948;9.208;2022-07-23T10:52:17;24.50;99.90
18091;DHT22;9172;49.948;9.208;2022-07-23T10:54:48;24.70;99.90
18091;DHT22;9172;49.948;9.208;2022-07-23T10:57:18;25.00;99.90
18091;DHT22;9172;49.948;9.208;2022-07-23T11:00:21;25.30;99.90
18091;DHT22;9172;49.948;9.208;2022-07-23T11:02:51;25.40;99.90
18091;DHT22;9172;49.948;9.208;2022-07-23T11:05:21;25.40;99.20
18091;DHT22;9172;49.948;9.208;2022-07-23T11:08:16;25.30;99.90
18091;DHT22;9172;49.948;9.208;2022-07-23T11:10:50;25.40;99.90
18091;DHT22;9172;49.948;9.208;2022-07-23T11:13:35;25.70;99.90
18091;DHT22;9172;49.948;9.208;2022-07-23T11:16:10;25.70;99.90
18091;DHT22;9172;49.948;9.208;2022-07-23T11:19:07;25.60;99.90
18091;DHT22;9172;49.948;9.208;2022-07-23T11:21:51;25.50;99.90
18091;DHT22;9172;49.948;9.208;2022-07-23T11:24:24;25.00;99.90
18091;DHT22;9172;49.948;9.208;2022-07-23T11:27:03;24.90;99.90
18091;DHT22;9172;49.948;9.208;2022-07-23T11:29:46;25.20;99.90
18091;DHT22;9172;49.948;9.208;2022-07-23T11:32:27;25.00;99.90
18091;DHT22;9172;49.948;9.208;2022-07-23T11:34:55;25.40;99.90
18091;DHT22;9172;49.948;9.208;2022-07-23T11:37:36;25.70;99.60
18091;DHT22;9172;49.948;9.208;2022-07-23T11:40:10;26.00;99.40
18091;DHT22;9172;49.948;9.208;2022-07-23T11:42:39;26.00;98.80
18091;DHT22;9172;49.948;9.208;2022-07-23T11:45:09;26.00;99.00
18091;DHT22;9172;49.948;9.208;2022-07-23T11:47:39;26.10;99.60
18091;DHT22;9172;49.948;9.208;2022-07-23T11:50:10;26.00;99.10
18091;DHT22;9172;49.948;9.208;2022-07-23T11:52:39;25.70;99.20
18091;DHT22;9172;49.948;9.208;2022-07-23T11:55:09;25.70;99.40
18091;DHT22;9172;49.948;9.208;2022-07-23T11:57:40;25.80;99.40
18091;DHT22;9172;49.948;9.208;2022-07-23T12:00:12;25.80;98.50
18091;DHT22;9172;49.948;9.208;2022-07-23T12:02:43;25.70;99.00
18091;DHT22;9172;49.948;9.208;2022-07-23T12:05:17;25.60;99.10
18091;DHT22;9172;49.948;9.208;2022-07-23T12:07:46;25.70;99.70
18091;DHT22;9172;49.948;9.208;2022-07-23T12:10:19;25.80;98.20
18091;DHT22;9172;49.948;9.208;2022-07-23T12:12:50;25.90;98.20
18091;DHT22;9172;49.948;9.208;2022-07-23T12:15:22;25.80;98.40
18091;DHT22;9172;49.948;9.208;2022-07-23T12:17:52;25.80;98.20
18091;DHT22;9172;49.948;9.208;2022-07-23T12:20:23;25.70;97.50
18091;DHT22;9172;49.948;9.208;2022-07-23T12:22:55;25.70;98.30
18091;DHT22;9172;49.948;9.208;2022-07-23T12:25:26;25.90;98.20
18091;DHT22;9172;49.948;9.208;2022-07-23T12:28:05;26.10;96.70
18091;DHT22;9172;49.948;9.208;2022-07-23T12:30:37;26.00;96.90
18091;DHT22;9172;49.948;9.208;2022-07-23T12:33:08;26.00;96.70
18091;DHT22;9172;49.948;9.208;2022-07-23T12:35:39;25.80;96.70
18091;DHT22;9172;49.948;9.208;2022-07-23T12:38:10;25.80;96.90
18091;DHT22;9172;49.948;9.208;2022-07-23T12:40:44;26.00;96.50
18091;DHT22;9172;49.948;9.208;2022-07-23T12:43:19;26.10;96.90
18091;DHT22;9172;49.948;9.208;2022-07-23T12:45:49;26.30;96.40
18091;DHT22;9172;49.948;9.208;2022-07-23T12:48:21;26.40;96.00
18091;DHT22;9172;49.948;9.208;2022-07-23T12:50:52;26.30;94.90
18091;DHT22;9172;49.948;9.208;2022-07-23T12:53:24;26.20;95.10
18091;DHT22;9172;49.948;9.208;2022-07-23T12:56:00;26.10;95.00
18091;DHT22;9172;49.948;9.208;2022-07-23T12:58:39;26.20;95.30
18091;DHT22;9172;49.948;9.208;2022-07-23T13:01:10;26.40;95.40
18091;DHT22;9172;49.948;9.208;2022-07-23T13:03:40;26.60;95.30
18091;DHT22;9172;49.948;9.208;2022-07-23T13:06:10;26.60;93.80
18091;DHT22;9172;49.948;9.208;2022-07-23T13:08:41;26.50;94.10
18091;DHT22;9172;49.948;9.208;2022-07-23T13:11:11;26.40;94.20
18091;DHT22;9172;49.948;9.208;2022-07-23T13:13:39;26.30;95.10
18091;DHT22;9172;49.948;9.208;2022-07-23T13:16:10;26.50;95.10
18091;DHT22;9172;49.948;9.208;2022-07-23T13:18:40;26.70;94.70
18091;DHT22;9172;49.948;9.208;2022-07-23T13:21:09;26.80;94.80
18091;DHT22;9172;49.948;9.208;2022-07-23T13:23:39;26.90;94.60
18091;DHT22;9172;49.948;9.208;2022-07-23T13:26:07;26.50;93.50
18091;DHT22;9172;49.948;9.208;2022-07-23T13:28:37;26.10;93.90
18091;DHT22;9172;49.948;9.208;2022-07-23T13:31:07;26.10;94.10
18091;DHT22;9172;49.948;9.208;2022-07-23T13:33:36;26.30;94.20
18091;DHT22;9172;49.948;9.208;2022-07-23T13:36:06;26.40;93.90
18091;DHT22;9172;49.948;9.208;2022-07-23T13:38:36;26.60;94.10
18091;DHT22;9172;49.948;9.208;2022-07-23T13:41:06;26.70;93.50
18091;DHT22;9172;49.948;9.208;2022-07-23T13:43:36;26.70;93.50
18091;DHT22;9172;49.948;9.208;2022-07-23T13:46:05;26.80;94.00
18091;DHT22;9172;49.948;9.208;2022-07-23T13:48:34;26.90;93.30
18091;DHT22;9172;49.948;9.208;2022-07-23T13:51:03;27.00;93.50
18091;DHT22;9172;49.948;9.208;2022-07-23T13:53:32;27.00;93.20
18091;DHT22;9172;49.948;9.208;2022-07-23T13:56:02;27.00;92.90
18091;DHT22;9172;49.948;9.208;2022-07-23T13:58:32;27.10;93.20
18091;DHT22;9172;49.948;9.208;2022-07-23T14:01:02;27.10;92.80
18091;DHT22;9172;49.948;9.208;2022-07-23T14:03:31;26.80;92.70
18091;DHT22;9172;49.948;9.208;2022-07-23T14:05:59;26.70;92.90
18091;DHT22;9172;49.948;9.208;2022-07-23T14:08:28;26.70;93.00
18091;DHT22;9172;49.948;9.208;2022-07-23T14:10:57;26.70;93.10
18091;DHT22;9172;49.948;9.208;2022-07-23T14:13:25;26.80;93.50
18091;DHT22;9172;49.948;9.208;2022-07-23T14:15:54;26.90;93.30
18091;DHT22;9172;49.948;9.208;2022-07-23T14:18:25;26.90;92.90
18091;DHT22;9172;49.948;9.208;2022-07-23T14:20:54;27.00;93.00
18091;DHT22;9172;49.948;9.208;2022-07-23T14:23:23;27.00;92.20
18091;DHT22;9172;49.948;9.208;2022-07-23T14:25:52;27.10;92.00
18091;DHT22;9172;49.948;9.208;2022-07-23T14:28:23;27.10;92.30
18091;DHT22;9172;49.948;9.208;2022-07-23T14:30:51;27.10;92.80
18091;DHT22;9172;49.948;9.208;2022-07-23T14:33:20;27.00;92.20
18091;DHT22;9172;49.948;9.208;2022-07-23T14:35:51;26.90;92.20
18091;DHT22;9172;49.948;9.208;2022-07-23T14:38:19;26.70;92.00
18091;DHT22;9172;49.948;9.208;2022-07-23T14:40:48;26.70;91.90
18091;DHT22;9172;49.948;9.208;2022-07-23T14:43:17;26.70;92.20
18091;DHT22;9172;49.948;9.208;2022-07-23T14:45:46;26.80;91.60
18091;DHT22;9172;49.948;9.208;2022-07-23T14:48:16;26.90;92.40
18091;DHT22;9172;49.948;9.208;2022-07-23T14:50:45;26.90;91.50
18091;DHT22;9172;49.948;9.208;2022-07-23T14:53:15;26.90;91.90
18091;DHT22;9172;49.948;9.208;2022-07-23T14:55:45;26.90;91.80
18091;DHT22;9172;49.948;9.208;2022-07-23T14:58:16;26.80;91.40
18091;DHT22;9172;49.948;9.208;2022-07-23T15:00:45;26.90;91.70
18091;DHT22;9172;49.948;9.208;2022-07-23T15:03:16;26.80;91.60
18091;DHT22;9172;49.948;9.208;2022-07-23T15:05:44;26.80;91.60
18091;DHT22;9172;49.948;9.208;2022-07-23T15:08:13;26.70;91.20
18091;DHT22;9172;49.948;9.208;2022-07-23T15:10:43;26.50;91.90
18091;DHT22;9172;49.948;9.208;2022-07-23T15:13:11;26.60;92.00
18091;DHT22;9172;49.948;9.208;2022-07-23T15:15:40;26.60;92.20
18091;DHT22;9172;49.948;9.208;2022-07-23T15:18:09;26.60;92.20
18091;DHT22;9172;49.948;9.208;2022-07-23T15:20:38;26.70;92.00
18091;DHT22;9172;49.948;9.208;2022-07-23T15:23:07;26.90;91.70
18091;DHT22;9172;49.948;9.208;2022-07-23T15:25:38;26.90;91.50
18091;DHT22;9172;49.948;9.208;2022-07-23T15:28:08;27.00;91.70
18091;DHT22;9172;49.948;9.208;2022-07-23T15:30:36;26.90;91.20
18091;DHT22;9172;49.948;9.208;2022-07-23T15:33:05;26.90;91.30
18091;DHT22;9172;49.948;9.208;2022-07-23T15:35:34;26.80;91.60
18091;DHT22;9172;49.948;9.208;2022-07-23T15:38:05;26.80;92.00
18091;DHT22;9172;49.948;9.208;2022-07-23T15:40:35;26.90;91.00
18091;DHT22;9172;49.948;9.208;2022-07-23T15:43:03;26.90;91.30
18091;DHT22;9172;49.948;9.208;2022-07-23T15:45:32;26.90;91.20
18091;DHT22;9172;49.948;9.208;2022-07-23T15:50:40;27.10;91.60
18091;DHT22;9172;49.948;9.208;2022-07-23T15:55:45;27.20;90.90
18091;DHT22;9172;49.948;9.208;2022-07-23T15:58:15;27.10;90.50
18091;DHT22;9172;49.948;9.208;2022-07-23T16:00:44;27.10;90.80
18091;DHT22;9172;49.948;9.208;2022-07-23T16:03:13;27.10;91.70
18091;DHT22;9172;49.948;9.208;2022-07-23T16:05:42;27.00;91.00
18091;DHT22;9172;49.948;9.208;2022-07-23T16:08:11;26.90;90.50
18091;DHT22;9172;49.948;9.208;2022-07-23T16:10:40;26.90;91.00
18091;DHT22;9172;49.948;9.208;2022-07-23T16:15:47;26.80;90.90
18091;DHT22;9172;49.948;9.208;2022-07-23T16:18:17;26.80;91.00
18091;DHT22;9172;49.948;9.208;2022-07-23T16:20:47;26.90;90.80
18091;DHT22;9172;49.948;9.208;2022-07-23T16:23:15;26.90;90.80
18091;DHT22;9172;49.948;9.208;2022-07-23T16:25:44;26.90;90.60
18091;DHT22;9172;49.948;9.208;2022-07-23T16:30:51;26.70;90.50
18091;DHT22;9172;49.948;9.208;2022-07-23T16:33:19;26.70;90.80
18091;DHT22;9172;49.948;9.208;2022-07-23T16:35:49;26.60;91.00
18091;DHT22;9172;49.948;9.208;2022-07-23T16:38:18;26.50;91.00
18091;DHT22;9172;49.948;9.208;2022-07-23T16:40:49;26.50;91.40
18091;DHT22;9172;49.948;9.208;2022-07-23T16:43:18;26.50;91.80
18091;DHT22;9172;49.948;9.208;2022-07-23T16:45:46;26.60;91.60
18091;DHT22;9172;49.948;9.208;2022-07-23T16:48:15;26.70;91.00
18091;DHT22;9172;49.948;9.208;2022-07-23T16:50:44;26.70;91.60
18091;DHT22;9172;49.948;9.208;2022-07-23T16:53:13;26.70;90.40
18091;DHT22;9172;49.948;9.208;2022-07-23T16:55:42;26.70;90.60
18091;DHT22;9172;49.948;9.208;2022-07-23T16:58:10;26.60;90.90
18091;DHT22;9172;49.948;9.208;2022-07-23T17:00:39;26.60;90.70
18091;DHT22;9172;49.948;9.208;2022-07-23T17:03:10;26.60;90.90
18091;DHT22;9172;49.948;9.208;2022-07-23T17:05:39;26.60;91.40
18091;DHT22;9172;49.948;9.208;2022-07-23T17:08:08;26.60;90.80
18091;DHT22;9172;49.948;9.208;2022-07-23T17:10:37;26.50;91.00
18091;DHT22;9172;49.948;9.208;2022-07-23T17:13:06;26.50;91.10
18091;DHT22;9172;49.948;9.208;2022-07-23T17:15:35;26.50;91.00
18091;DHT22;9172;49.948;9.208;2022-07-23T17:18:04;26.50;90.70
18091;DHT22;9172;49.948;9.208;2022-07-23T17:20:35;26.50;91.00
18091;DHT22;9172;49.948;9.208;2022-07-23T17:23:03;26.50;91.10
18091;DHT22;9172;49.948;9.208;2022-07-23T17:25:32;26.50;91.10
18091;DHT22;9172;49.948;9.208;2022-07-23T17:28:02;26.50;90.80
18091;DHT22;9172;49.948;9.208;2022-07-23T17:30:31;26.40;91.50
18091;DHT22;9172;49.948;9.208;2022-07-23T17:35:38;26.30;90.40
18091;DHT22;9172;49.948;9.208;2022-07-23T17:38:07;26.40;91.00
18091;DHT22;9172;49.948;9.208;2022-07-23T17:40:37;26.30;91.60
18091;DHT22;9172;49.948;9.208;2022-07-23T17:45:48;26.10;91.50
18091;DHT22;9172;49.948;9.208;2022-07-23T17:48:17;26.10;91.70
18091;DHT22;9172;49.948;9.208;2022-07-23T17:50:48;26.10;91.80
18091;DHT22;9172;49.948;9.208;2022-07-23T17:53:17;26.10;91.60
18091;DHT22;9172;49.948;9.208;2022-07-23T17:55:47;26.10;92.00
18091;DHT22;9172;49.948;9.208;2022-07-23T17:58:15;26.00;92.20
18091;DHT22;9172;49.948;9.208;2022-07-23T18:00:44;26.00;92.60
18091;DHT22;9172;49.948;9.208;2022-07-23T18:03:13;26.00;93.10
18091;DHT22;9172;49.948;9.208;2022-07-23T18:05:43;25.90;93.50
18091;DHT22;9172;49.948;9.208;2022-07-23T18:08:11;25.90;93.60
18091;DHT22;9172;49.948;9.208;2022-07-23T18:10:40;25.80;93.60
18091;DHT22;9172;49.948;9.208;2022-07-23T18:13:09;25.80;94.00
18091;DHT22;9172;49.948;9.208;2022-07-23T18:15:40;25.70;94.30
18091;DHT22;9172;49.948;9.208;2022-07-23T18:18:08;25.70;94.40
18091;DHT22;9172;49.948;9.208;2022-07-23T18:20:38;25.60;95.60
18091;DHT22;9172;49.948;9.208;2022-07-23T18:23:08;25.60;94.80
18091;DHT22;9172;49.948;9.208;2022-07-23T18:25:37;25.50;94.20
18091;DHT22;9172;49.948;9.208;2022-07-23T18:28:05;25.50;94.30
18091;DHT22;9172;49.948;9.208;2022-07-23T18:30:34;25.40;92.50
18091;DHT22;9172;49.948;9.208;2022-07-23T18:33:03;25.40;93.00
18091;DHT22;9172;49.948;9.208;2022-07-23T18:35:31;25.40;92.00
18091;DHT22;9172;49.948;9.208;2022-07-23T18:40:38;25.40;93.30
18091;DHT22;9172;49.948;9.208;2022-07-23T18:43:07;25.30;94.50
18091;DHT22;9172;49.948;9.208;2022-07-23T18:45:37;25.20;93.80
18091;DHT22;9172;49.948;9.208;2022-07-23T18:48:06;25.20;94.10
18091;DHT22;9172;49.948;9.208;2022-07-23T18:50:37;25.10;94.70
18091;DHT22;9172;49.948;9.208;2022-07-23T18:53:06;25.00;95.10
18091;DHT22;9172;49.948;9.208;2022-07-23T18:58:11;24.80;95.10
18091;DHT22;9172;49.948;9.208;2022-07-23T19:00:41;24.70;94.90
18091;DHT22;9172;49.948;9.208;2022-07-23T19:03:10;24.60;95.30
18091;DHT22;9172;49.948;9.208;2022-07-23T19:05:39;24.60;95.30
18091;DHT22;9172;49.948;9.208;2022-07-23T19:08:09;24.50;95.40
18091;DHT22;9172;49.948;9.208;2022-07-23T19:10:38;24.50;95.40
18091;DHT22;9172;49.948;9.208;2022-07-23T19:13:07;24.50;95.90
18091;DHT22;9172;49.948;9.208;2022-07-23T19:15:35;24.50;96.50
18091;DHT22;9172;49.948;9.208;2022-07-23T19:18:05;24.50;96.70
18091;DHT22;9172;49.948;9.208;2022-07-23T19:20:35;24.50;96.90
18091;DHT22;9172;49.948;9.208;2022-07-23T19:23:03;24.40;97.20
18091;DHT22;9172;49.948;9.208;2022-07-23T19:25:34;24.30;97.40
18091;DHT22;9172;49.948;9.208;2022-07-23T19:28:03;24.30;97.50
18091;DHT22;9172;49.948;9.208;2022-07-23T19:30:31;24.20;97.50
18091;DHT22;9172;49.948;9.208;2022-07-23T19:33:01;24.10;97.40
18091;DHT22;9172;49.948;9.208;2022-07-23T19:35:30;24.10;96.10
18091;DHT22;9172;49.948;9.208;2022-07-23T19:40:35;23.90;96.20
18091;DHT22;9172;49.948;9.208;2022-07-23T19:45:42;23.80;97.10
18091;DHT22;9172;49.948;9.208;2022-07-23T19:48:14;23.70;97.80
18091;DHT22;9172;49.948;9.208;2022-07-23T19:50:43;23.70;98.10
18091;DHT22;9172;49.948;9.208;2022-07-23T19:53:12;23.60;98.30
18091;DHT22;9172;49.948;9.208;2022-07-23T19:55:41;23.60;98.50
18091;DHT22;9172;49.948;9.208;2022-07-23T19:58:10;23.40;98.60
18091;DHT22;9172;49.948;9.208;2022-07-23T20:00:39;23.40;98.80
18091;DHT22;9172;49.948;9.208;2022-07-23T20:03:08;23.30;98.50
18091;DHT22;9172;49.948;9.208;2022-07-23T20:05:37;23.30;98.50
18091;DHT22;9172;49.948;9.208;2022-07-23T20:10:42;23.20;98.90
18091;DHT22;9172;49.948;9.208;2022-07-23T20:15:47;23.10;99.20
18091;DHT22;9172;49.948;9.208;2022-07-23T20:18:16;23.00;99.20
18091;DHT22;9172;49.948;9.208;2022-07-23T20:20:46;23.00;99.20
18091;DHT22;9172;49.948;9.208;2022-07-23T20:23:18;22.90;99.40
18091;DHT22;9172;49.948;9.208;2022-07-23T20:25:48;22.80;99.50
18091;DHT22;9172;49.948;9.208;2022-07-23T20:30:57;23.80;99.90
18091;DHT22;9172;49.948;9.208;2022-07-23T20:33:28;22.60;99.90
18091;DHT22;9172;49.948;9.208;2022-07-23T20:35:57;22.60;99.90
18091;DHT22;9172;49.948;9.208;2022-07-23T20:38:27;22.50;99.90
18091;DHT22;9172;49.948;9.208;2022-07-23T20:40:56;22.40;99.90
18091;DHT22;9172;49.948;9.208;2022-07-23T20:43:25;22.40;99.90
18091;DHT22;9172;49.948;9.208;2022-07-23T20:45:54;22.30;99.90
18091;DHT22;9172;49.948;9.208;2022-07-23T20:51:01;22.30;99.90
18091;DHT22;9172;49.948;9.208;2022-07-23T20:53:31;22.30;99.90
18091;DHT22;9172;49.948;9.208;2022-07-23T20:56:01;22.30;99.90
18091;DHT22;9172;49.948;9.208;2022-07-23T20:58:31;22.20;99.90
18091;DHT22;9172;49.948;9.208;2022-07-23T21:01:00;22.10;99.90
18091;DHT22;9172;49.948;9.208;2022-07-23T21:03:29;22.10;99.90
18091;DHT22;9172;49.948;9.208;2022-07-23T21:05:58;22.00;99.90
18091;DHT22;9172;49.948;9.208;2022-07-23T21:08:27;22.00;99.90
18091;DHT22;9172;49.948;9.208;2022-07-23T21:10:56;22.00;99.90
18091;DHT22;9172;49.948;9.208;2022-07-23T21:13:26;21.90;99.90
18091;DHT22;9172;49.948;9.208;2022-07-23T21:15:54;21.90;99.90
18091;DHT22;9172;49.948;9.208;2022-07-23T21:18:23;21.80;99.90
18091;DHT22;9172;49.948;9.208;2022-07-23T21:20:53;21.80;99.90
18091;DHT22;9172;49.948;9.208;2022-07-23T21:23:40;21.70;99.90
18091;DHT22;9172;49.948;9.208;2022-07-23T21:26:10;21.70;99.90
18091;DHT22;9172;49.948;9.208;2022-07-23T21:28:39;21.60;99.90
18091;DHT22;9172;49.948;9.208;2022-07-23T21:31:09;21.60;99.90
18091;DHT22;9172;49.948;9.208;2022-07-23T21:36:16;21.50;99.90
18091;DHT22;9172;49.948;9.208;2022-07-23T21:38:45;21.60;99.90
18091;DHT22;9172;49.948;9.208;2022-07-23T21:41:13;21.50;99.90
18091;DHT22;9172;49.948;9.208;2022-07-23T21:43:43;21.50;99.90
18091;DHT22;9172;49.948;9.208;2022-07-23T21:46:15;21.50;99.90
18091;DHT22;9172;49.948;9.208;2022-07-23T21:48:44;21.40;99.90
18091;DHT22;9172;49.948;9.208;2022-07-23T21:51:14;21.40;99.90
18091;DHT22;9172;49.948;9.208;2022-07-23T21:53:45;21.20;99.90
18091;DHT22;9172;49.948;9.208;2022-07-23T21:56:16;21.10;99.90
18091;DHT22;9172;49.948;9.208;2022-07-23T21:58:46;21.00;99.90
18091;DHT22;9172;49.948;9.208;2022-07-23T22:01:14;21.00;99.90
18091;DHT22;9172;49.948;9.208;2022-07-23T22:03:43;21.00;99.90
18091;DHT22;9172;49.948;9.208;2022-07-23T22:06:13;21.00;99.90
18091;DHT22;9172;49.948;9.208;2022-07-23T22:08:42;21.10;99.90
18091;DHT22;9172;49.948;9.208;2022-07-23T22:11:11;21.00;99.90
18091;DHT22;9172;49.948;9.208;2022-07-23T22:13:41;21.00;99.90
18091;DHT22;9172;49.948;9.208;2022-07-23T22:16:12;21.00;99.90
18091;DHT22;9172;49.948;9.208;2022-07-23T22:18:40;20.90;99.90
18091;DHT22;9172;49.948;9.208;2022-07-23T22:21:10;21.00;99.90
18091;DHT22;9172;49.948;9.208;2022-07-23T22:23:39;20.90;99.90
18091;DHT22;9172;49.948;9.208;2022-07-23T22:26:07;21.00;99.90
18091;DHT22;9172;49.948;9.208;2022-07-23T22:28:36;21.00;99.90
18091;DHT22;9172;49.948;9.208;2022-07-23T22:31:05;20.90;99.90
18091;DHT22;9172;49.948;9.208;2022-07-23T22:33:34;20.90;99.90
18091;DHT22;9172;49.948;9.208;2022-07-23T22:36:04;20.90;99.90
18091;DHT22;9172;49.948;9.208;2022-07-23T22:38:34;21.00;99.90
18091;DHT22;9172;49.948;9.208;2022-07-23T22:41:05;21.10;99.80
18091;DHT22;9172;49.948;9.208;2022-07-23T22:43:34;21.20;99.40
18091;DHT22;9172;49.948;9.208;2022-07-23T22:46:03;21.30;99.40
18091;DHT22;9172;49.948;9.208;2022-07-23T22:48:32;21.30;99.30
18091;DHT22;9172;49.948;9.208;2022-07-23T22:51:02;21.30;99.40
18091;DHT22;9172;49.948;9.208;2022-07-23T22:53:30;21.30;99.00
18091;DHT22;9172;49.948;9.208;2022-07-23T22:55:59;21.40;99.20
18091;DHT22;9172;49.948;9.208;2022-07-23T22:58:29;21.40;98.90
18091;DHT22;9172;49.948;9.208;2022-07-23T23:00:58;21.40;99.00
18091;DHT22;9172;49.948;9.208;2022-07-23T23:03:27;21.40;99.30
18091;DHT22;9172;49.948;9.208;2022-07-23T23:05:58;21.40;99.10
18091;DHT22;9172;49.948;9.208;2022-07-23T23:08:26;21.30;99.30
18091;DHT22;9172;49.948;9.208;2022-07-23T23:10:55;21.30;99.10
18091;DHT22;9172;49.948;9.208;2022-07-23T23:13:24;21.30;99.20
18091;DHT22;9172;49.948;9.208;2022-07-23T23:15:53;21.30;99.10
18091;DHT22;9172;49.948;9.208;2022-07-23T23:18:22;21.30;99.20
18091;DHT22;9172;49.948;9.208;2022-07-23T23:20:51;21.20;99.40
18091;DHT22;9172;49.948;9.208;2022-07-23T23:23:19;21.20;99.40
18091;DHT22;9172;49.948;9.208;2022-07-23T23:25:50;21.10;99.30
18091;DHT22;9172;49.948;9.208;2022-07-23T23:28:19;21.10;99.40
18091;DHT22;9172;49.948;9.208;2022-07-23T23:30:48;21.10;99.40
18091;DHT22;9172;49.948;9.208;2022-07-23T23:33:18;21.10;99.40
18091;DHT22;9172;49.948;9.208;2022-07-23T23:35:47;21.10;99.50
18091;DHT22;9172;49.948;9.208;2022-07-23T23:38:16;21.10;99.60
18091;DHT22;9172;49.948;9.208;2022-07-23T23:40:46;21.10;99.70
18091;DHT22;9172;49.948;9.208;2022-07-23T23:43:15;21.10;99.60
18091;DHT22;9172;49.948;9.208;2022-07-23T23:45:44;21.00;99.60
18091;DHT22;9172;49.948;9.208;2022-07-23T23:48:13;21.00;99.70
18091;DHT22;9172;49.948;9.208;2022-07-23T23:50:41;21.00;99.50
18091;DHT22;9172;49.948;9.208;2022-07-23T23:53:10;21.00;99.60
18091;DHT22;9172;49.948;9.208;2022-07-23T23:55:39;21.00;99.50
18091;DHT22;9172;49.948;9.208;2022-07-23T23:58:08;21.00;99.50
